Time;durP1;ratioP1;P1;durP2;ratioP2;P2;SDS_P1;SDS_P2;PMS_P1;PMS_P2;Temp;Humidity;BMP_temperature;BMP_pressure;BME280_temperature;BME280_humidity;BME280_pressure;Samples;Min_cycle;Max_cycle;Signal;HPM_P1;HPM_P2
2023/09/19 00:00:25;;;;;;;8.15;1.42;;;14.30;99.90;;;;;;5136771;27;20496;-75
2023/09/19 00:03:01;;;;;;;9.88;1.80;;;14.30;99.90;;;;;;5155122;27;20393;-75
2023/09/19 00:05:34;;;;;;;11.32;2.15;;;14.30;99.90;;;;;;5136967;27;20121;-75
2023/09/19 00:08:01;;;;;;;8.65;2.55;;;14.30;99.90;;;;;;5136682;27;20129;-75
2023/09/19 00:10:30;;;;;;;8.73;1.80;;;14.20;99.90;;;;;;5136429;27;20039;-75
2023/09/19 00:12:58;;;;;;;8.90;2.00;;;14.20;99.90;;;;;;5136460;27;20042;-75
2023/09/19 00:15:24;;;;;;;12.63;2.20;;;14.20;99.90;;;;;;5136744;27;20043;-75
2023/09/19 00:17:52;;;;;;;13.05;2.38;;;14.10;99.90;;;;;;5134334;27;20513;-75
2023/09/19 00:20:18;;;;;;;11.38;2.60;;;14.00;99.90;;;;;;5154675;27;20117;-75
2023/09/19 00:22:44;;;;;;;8.95;2.35;;;14.00;99.90;;;;;;5136343;27;20039;-75
2023/09/19 00:25:11;;;;;;;9.88;1.88;;;14.00;99.90;;;;;;5136548;27;20053;-75
2023/09/19 00:27:43;;;;;;;12.77;2.22;;;14.00;99.90;;;;;;5154858;27;20043;-75
2023/09/19 00:30:19;;;;;;;8.20;1.98;;;14.00;99.90;;;;;;5136426;27;20050;-75
2023/09/19 00:32:47;;;;;;;9.45;2.55;;;14.00;99.90;;;;;;5136063;27;20425;-75
2023/09/19 00:35:15;;;;;;;11.90;2.35;;;14.00;99.90;;;;;;5136193;27;20047;-75
2023/09/19 00:37:41;;;;;;;6.05;1.92;;;14.00;99.90;;;;;;5154652;27;20090;-75
2023/09/19 00:40:26;;;;;;;8.93;1.88;;;14.00;99.90;;;;;;5154696;27;20081;-75
2023/09/19 00:42:59;;;;;;;9.82;2.08;;;13.90;99.90;;;;;;5136021;27;20047;-75
2023/09/19 00:45:25;;;;;;;10.30;2.50;;;13.80;99.90;;;;;;5136309;27;20051;-75
2023/09/19 00:47:51;;;;;;;10.07;2.35;;;13.80;99.90;;;;;;5138740;27;20039;-75
2023/09/19 00:50:22;;;;;;;15.30;2.78;;;13.80;99.90;;;;;;5139881;27;20053;-75
2023/09/19 00:52:52;;;;;;;8.90;2.13;;;13.70;99.90;;;;;;5158570;27;20035;-75
2023/09/19 00:55:21;;;;;;;15.52;2.78;;;13.70;99.90;;;;;;5139842;27;20051;-75
2023/09/19 00:57:49;;;;;;;9.93;2.35;;;13.80;99.90;;;;;;5139692;27;20046;-75
2023/09/19 01:00:15;;;;;;;11.15;2.85;;;13.80;99.90;;;;;;5139555;27;20125;-75
2023/09/19 01:02:45;;;;;;;9.55;2.65;;;13.70;99.90;;;;;;5158350;27;20056;-75
2023/09/19 01:05:12;;;;;;;14.70;3.13;;;13.80;99.90;;;;;;5139734;27;20393;-74
2023/09/19 01:07:41;;;;;;;8.60;2.08;;;13.70;99.90;;;;;;5158159;27;20045;-75
2023/09/19 01:10:10;;;;;;;9.32;2.40;;;13.70;99.90;;;;;;5139553;27;20042;-75
2023/09/19 01:12:49;;;;;;;13.70;3.33;;;13.70;99.90;;;;;;5139495;27;20038;-75
2023/09/19 01:15:21;;;;;;;11.75;2.60;;;13.70;99.90;;;;;;5158303;27;20585;-75
2023/09/19 01:18:12;;;;;;;9.90;1.92;;;13.70;99.90;;;;;;5139314;27;20042;-75
2023/09/19 01:21:24;;;;;;;12.00;2.33;;;13.70;99.90;;;;;;5138934;27;20047;-75
2023/09/19 01:24:28;;;;;;;15.70;2.35;;;13.80;99.90;;;;;;5103309;27;20397;-74
2023/09/19 01:27:18;;;;;;;9.63;1.77;;;13.80;99.90;;;;;;5139251;27;20051;-74
2023/09/19 01:29:47;;;;;;;12.30;1.90;;;13.70;99.90;;;;;;5139487;27;20043;-74
2023/09/19 01:32:21;;;;;;;11.13;2.22;;;13.70;99.90;;;;;;5138893;27;20051;-75
2023/09/19 01:34:49;;;;;;;11.27;2.40;;;13.70;99.90;;;;;;5139098;27;20085;-75
2023/09/19 01:37:19;;;;;;;13.15;2.70;;;13.60;99.90;;;;;;5139135;27;20051;-74
2023/09/19 01:39:51;;;;;;;11.00;2.80;;;13.60;99.90;;;;;;5139595;27;20126;-75
2023/09/19 01:42:31;;;;;;;15.57;2.63;;;13.60;99.90;;;;;;5139061;27;20486;-75
2023/09/19 01:45:27;;;;;;;12.73;3.13;;;13.60;99.90;;;;;;5157472;27;20049;-74
2023/09/19 01:47:55;;;;;;;12.50;2.88;;;13.50;99.90;;;;;;5130204;27;20490;-75
2023/09/19 01:50:55;;;;;;;11.18;2.53;;;13.60;99.90;;;;;;5138869;27;20041;-75
2023/09/19 01:53:33;;;;;;;10.68;2.28;;;13.50;99.90;;;;;;5139056;27;20102;-74
2023/09/19 01:56:07;;;;;;;10.73;2.58;;;13.50;99.90;;;;;;5139052;27;20043;-75
2023/09/19 01:58:39;;;;;;;9.27;2.28;;;13.50;99.90;;;;;;5138253;27;20043;-75
2023/09/19 02:01:06;;;;;;;10.85;2.13;;;13.40;99.90;;;;;;5138547;27;20043;-74
2023/09/19 02:03:34;;;;;;;12.45;2.28;;;13.40;99.90;;;;;;5157153;27;20103;-75
2023/09/19 02:06:00;;;;;;;8.80;3.33;;;13.40;99.90;;;;;;5138469;27;20039;-75
2023/09/19 02:08:26;;;;;;;8.23;2.17;;;13.40;99.90;;;;;;5138671;27;20125;-75
2023/09/19 02:10:52;;;;;;;13.88;2.90;;;13.40;99.90;;;;;;5138040;27;20043;-75
2023/09/19 02:13:20;;;;;;;11.20;2.40;;;13.40;99.90;;;;;;5138419;27;20495;-75
2023/09/19 02:15:46;;;;;;;8.50;2.33;;;13.30;99.90;;;;;;5138137;27;20039;-74
2023/09/19 02:18:12;;;;;;;12.23;2.13;;;13.30;99.90;;;;;;5137860;27;20046;-74
2023/09/19 02:20:39;;;;;;;7.57;2.38;;;13.30;99.90;;;;;;5138105;27;20074;-74
2023/09/19 02:23:08;;;;;;;12.07;2.47;;;13.30;99.90;;;;;;5138410;27;20082;-75
2023/09/19 02:25:35;;;;;;;7.38;2.15;;;13.20;99.90;;;;;;5138322;27;20043;-74
2023/09/19 02:28:02;;;;;;;8.23;2.10;;;13.30;99.90;;;;;;5137910;27;20050;-74
2023/09/19 02:30:28;;;;;;;7.88;2.40;;;13.30;99.90;;;;;;5137868;27;20091;-75
2023/09/19 02:32:54;;;;;;;9.80;2.20;;;13.30;99.90;;;;;;5156466;27;20125;-75
2023/09/19 02:35:20;;;;;;;11.35;3.25;;;13.20;99.90;;;;;;5156450;27;20117;-74
2023/09/19 02:37:46;;;;;;;9.65;2.20;;;13.30;99.90;;;;;;5137616;27;20050;-74
2023/09/19 02:40:25;;;;;;;9.65;2.30;;;13.30;99.90;;;;;;5156213;27;20050;-75
2023/09/19 02:42:55;;;;;;;11.02;2.47;;;13.20;99.90;;;;;;5156260;27;20039;-75
2023/09/19 02:45:22;;;;;;;8.20;1.92;;;13.30;99.90;;;;;;5137757;27;20119;-75
2023/09/19 02:47:48;;;;;;;10.80;1.80;;;13.20;99.90;;;;;;5137597;27;20046;-75
2023/09/19 02:50:17;;;;;;;12.52;3.03;;;13.20;99.90;;;;;;5137608;27;20050;-75
2023/09/19 02:52:44;;;;;;;8.68;2.05;;;13.20;99.90;;;;;;5137637;27;20058;-75
2023/09/19 02:55:17;;;;;;;14.05;2.25;;;13.20;99.90;;;;;;5137357;27;20047;-75
2023/09/19 02:57:49;;;;;;;;;;;13.20;99.90;;;;;;5138045;27;20078;-74
2023/09/19 03:00:22;;;;;;;12.93;2.38;;;13.20;99.90;;;;;;5156134;27;19919;-75
2023/09/19 03:02:53;;;;;;;11.48;2.55;;;13.20;99.90;;;;;;5137656;27;20045;-75
2023/09/19 03:05:20;;;;;;;13.77;3.13;;;13.20;99.90;;;;;;5137480;27;20053;-74
2023/09/19 03:07:53;;;;;;;7.90;2.40;;;13.20;99.90;;;;;;5137411;27;20420;-74
2023/09/19 03:10:20;;;;;;;11.15;1.50;;;13.20;99.90;;;;;;5136651;27;20042;-74
2023/09/19 03:12:46;;;;;;;15.13;2.25;;;13.20;99.90;;;;;;5137330;27;20039;-75
2023/09/19 03:15:15;;;;;;;8.07;1.92;;;13.10;99.90;;;;;;5137193;27;20042;-74
2023/09/19 03:17:47;;;;;;;7.82;1.35;;;13.10;99.90;;;;;;5137242;27;20474;-74
2023/09/19 03:20:17;;;;;;;10.60;2.13;;;13.20;99.90;;;;;;5137351;27;20047;-75
2023/09/19 03:22:43;;;;;;;9.30;2.25;;;13.20;99.90;;;;;;5155533;27;20501;-75
2023/09/19 03:25:10;;;;;;;11.55;2.00;;;13.20;99.90;;;;;;5137279;27;20386;-74
2023/09/19 03:27:35;;;;;;;9.70;1.90;;;13.20;99.90;;;;;;5137262;27;20054;-75
2023/09/19 03:30:05;;;;;;;11.65;1.98;;;13.20;99.90;;;;;;5137315;27;20050;-75
2023/09/19 03:32:31;;;;;;;8.13;1.52;;;13.20;99.90;;;;;;5155302;27;20047;-75
2023/09/19 03:34:57;;;;;;;12.40;2.13;;;13.20;99.90;;;;;;5155283;27;20393;-74
2023/09/19 03:37:22;;;;;;;14.55;2.45;;;13.20;99.90;;;;;;5136988;27;20050;-75
2023/09/19 03:39:48;;;;;;;9.38;2.50;;;13.20;99.90;;;;;;5136927;27;20046;-74
2023/09/19 03:42:14;;;;;;;12.75;1.70;;;13.20;99.90;;;;;;5136644;27;20091;-75
2023/09/19 03:44:39;;;;;;;9.50;2.08;;;13.20;99.90;;;;;;5136973;27;20149;-75
2023/09/19 03:47:06;;;;;;;9.27;2.10;;;13.20;99.90;;;;;;5136691;27;20047;-75
2023/09/19 03:49:33;;;;;;;7.85;1.50;;;13.20;99.90;;;;;;5137061;27;20398;-75
2023/09/19 03:51:59;;;;;;;10.55;2.72;;;13.20;99.90;;;;;;5136967;27;20125;-75
2023/09/19 03:54:25;;;;;;;11.65;2.55;;;13.20;99.90;;;;;;5137028;27;20466;-75
2023/09/19 03:56:50;;;;;;;9.52;1.75;;;13.20;99.90;;;;;;5155153;27;20569;-74
2023/09/19 03:59:18;;;;;;;8.35;1.90;;;13.20;99.90;;;;;;5154846;27;20043;-75
2023/09/19 04:01:43;;;;;;;6.32;1.80;;;13.20;99.90;;;;;;5136546;27;20046;-75
2023/09/19 04:04:09;;;;;;;15.45;1.80;;;13.20;99.90;;;;;;5155044;27;20126;-75
2023/09/19 04:06:35;;;;;;;10.25;1.92;;;13.20;99.90;;;;;;5136846;27;20050;-75
2023/09/19 04:09:03;;;;;;;10.18;2.10;;;13.20;99.90;;;;;;5136540;27;20054;-74
2023/09/19 04:11:32;;;;;;;10.13;1.73;;;13.20;99.90;;;;;;5136578;27;20126;-74
2023/09/19 04:13:58;;;;;;;11.20;2.10;;;13.30;99.90;;;;;;5136951;27;20039;-75
2023/09/19 04:16:24;;;;;;;10.43;2.42;;;13.30;99.90;;;;;;5136506;27;20396;-75
2023/09/19 04:18:53;;;;;;;9.52;1.98;;;13.30;99.90;;;;;;5136443;27;20049;-74
2023/09/19 04:21:21;;;;;;;11.40;1.80;;;13.20;99.90;;;;;;5155148;27;20038;-74
2023/09/19 04:23:47;;;;;;;8.52;1.60;;;13.30;99.90;;;;;;5158963;27;20042;-75
2023/09/19 04:26:12;;;;;;;10.00;2.22;;;13.20;99.90;;;;;;5140387;27;20550;-74
2023/09/19 04:28:38;;;;;;;13.82;2.35;;;13.20;99.90;;;;;;5159049;27;20027;-74
2023/09/19 04:31:04;;;;;;;9.15;1.55;;;13.20;99.90;;;;;;5158766;27;20042;-75
2023/09/19 04:33:30;;;;;;;15.07;1.95;;;13.20;99.90;;;;;;5158582;27;20102;-75
2023/09/19 04:35:57;;;;;;;11.05;1.80;;;13.20;99.90;;;;;;5140200;27;20055;-75
2023/09/19 04:38:23;;;;;;;11.45;1.67;;;13.20;99.90;;;;;;5139880;27;20061;-74
2023/09/19 04:40:49;;;;;;;13.18;2.20;;;13.30;99.90;;;;;;5139650;27;20046;-74
2023/09/19 04:43:15;;;;;;;10.48;2.25;;;13.20;99.90;;;;;;5140231;27;20042;-74
2023/09/19 04:45:41;;;;;;;10.10;2.00;;;13.20;99.90;;;;;;5139722;27;20039;-74
2023/09/19 04:48:08;;;;;;;9.68;1.85;;;13.30;99.90;;;;;;5158674;27;20035;-74
2023/09/19 04:50:34;;;;;;;8.82;2.15;;;13.30;99.90;;;;;;5139987;27;20556;-74
2023/09/19 04:53:00;;;;;;;9.57;1.63;;;13.30;99.90;;;;;;5139996;27;20130;-74
2023/09/19 04:55:26;;;;;;;13.45;2.08;;;13.30;99.90;;;;;;5158417;27;20031;-74
2023/09/19 04:57:55;;;;;;;11.60;2.53;;;13.30;99.90;;;;;;5139594;27;20386;-74
2023/09/19 05:00:24;;;;;;;12.10;2.38;;;13.30;99.90;;;;;;5139575;27;20085;-74
2023/09/19 05:02:51;;;;;;;10.75;2.40;;;13.30;99.90;;;;;;5139658;27;20054;-74
2023/09/19 05:05:18;;;;;;;12.02;2.17;;;13.30;99.90;;;;;;5158268;27;20054;-74
2023/09/19 05:07:45;;;;;;;9.25;1.70;;;13.30;99.90;;;;;;5139596;27;20433;-74
2023/09/19 05:10:12;;;;;;;8.90;1.60;;;13.30;99.90;;;;;;5139588;27;20042;-74
2023/09/19 05:12:38;;;;;;;13.55;2.10;;;13.30;99.90;;;;;;5139340;27;20046;-74
2023/09/19 05:15:08;;;;;;;11.30;2.38;;;13.30;99.90;;;;;;5139261;27;20129;-74
2023/09/19 05:17:34;;;;;;;13.05;2.67;;;13.30;99.90;;;;;;5138544;27;20410;-74
2023/09/19 05:20:05;;;;;;;7.90;1.85;;;13.30;99.90;;;;;;5138766;27;20046;-74
2023/09/19 05:22:32;;;;;;;13.75;1.98;;;13.30;99.90;;;;;;5138286;27;20046;-74
2023/09/19 05:24:58;;;;;;;14.07;1.90;;;13.40;99.90;;;;;;5138059;27;20062;-74
2023/09/19 05:27:24;;;;;;;9.40;1.98;;;13.40;99.90;;;;;;5137886;27;20129;-74
2023/09/19 05:29:53;;;;;;;11.55;2.22;;;13.40;99.90;;;;;;5138054;27;20503;-74
2023/09/19 05:32:19;;;;;;;16.17;2.13;;;13.40;99.90;;;;;;5134803;27;20070;-74
2023/09/19 05:34:47;;;;;;;14.05;2.33;;;13.40;99.90;;;;;;5135452;27;20639;-74
2023/09/19 05:37:13;;;;;;;11.65;2.00;;;13.40;99.90;;;;;;5135666;27;20131;-74
2023/09/19 05:39:39;;;;;;;12.07;1.88;;;13.40;99.90;;;;;;5135575;27;20055;-74
2023/09/19 05:42:05;;;;;;;14.25;1.90;;;13.40;99.90;;;;;;5135620;27;20037;-74
2023/09/19 05:44:31;;;;;;;9.63;1.90;;;13.40;99.90;;;;;;5136420;27;20451;-74
2023/09/19 05:46:57;;;;;;;12.85;2.65;;;13.50;99.90;;;;;;5135476;27;20448;-74
2023/09/19 05:49:24;;;;;;;12.77;2.30;;;13.50;99.90;;;;;;5135050;27;20047;-74
2023/09/19 05:51:50;;;;;;;11.65;2.35;;;13.50;99.90;;;;;;5135912;27;20066;-74
2023/09/19 05:54:18;;;;;;;10.43;2.38;;;13.50;99.90;;;;;;5135152;27;20102;-74
2023/09/19 05:56:46;;;;;;;11.18;2.13;;;13.60;99.90;;;;;;5135274;27;20039;-74
2023/09/19 05:59:15;;;;;;;11.43;2.22;;;13.60;99.90;;;;;;5134910;27;20114;-73
2023/09/19 06:01:42;;;;;;;9.68;2.30;;;13.60;99.90;;;;;;5134879;27;20054;-74
2023/09/19 06:04:07;;;;;;;7.15;2.05;;;13.70;99.90;;;;;;5135111;27;20055;-74
2023/09/19 06:06:36;;;;;;;19.15;2.88;;;13.70;99.90;;;;;;5136417;27;20398;-74
2023/09/19 06:09:05;;;;;;;11.23;2.20;;;13.70;99.90;;;;;;5134937;27;20567;-74
2023/09/19 06:11:32;;;;;;;11.40;2.72;;;13.70;99.90;;;;;;5134620;27;20055;-74
2023/09/19 06:14:00;;;;;;;8.30;1.77;;;13.80;99.90;;;;;;5135947;27;20095;-74
2023/09/19 06:16:25;;;;;;;13.68;1.88;;;13.80;99.90;;;;;;5135956;27;20114;-74
2023/09/19 06:18:52;;;;;;;14.32;2.40;;;13.80;99.90;;;;;;5127150;27;20528;-73
2023/09/19 06:21:18;;;;;;;12.30;2.80;;;13.80;99.90;;;;;;5125842;27;20066;-74
2023/09/19 06:23:44;;;;;;;11.48;2.28;;;13.80;99.90;;;;;;5131631;27;20035;-74
2023/09/19 06:26:09;;;;;;;13.20;2.67;;;13.80;99.90;;;;;;5132422;27;20047;-74
2023/09/19 06:28:35;;;;;;;13.90;2.42;;;13.90;99.90;;;;;;5134343;27;20104;-73
2023/09/19 06:31:03;;;;;;;13.90;2.00;;;13.90;99.90;;;;;;5134109;27;20174;-73
2023/09/19 06:33:31;;;;;;;13.20;2.20;;;13.90;99.90;;;;;;5154745;27;20047;-73
2023/09/19 06:36:00;;;;;;;11.20;2.20;;;13.90;99.90;;;;;;5137718;27;20111;-74
2023/09/19 06:38:25;;;;;;;13.27;2.05;;;14.00;99.90;;;;;;5137349;27;20461;-76
2023/09/19 06:41:08;;;;;;;11.70;2.65;;;13.90;99.90;;;;;;5090867;27;20401;-72
2023/09/19 06:43:34;;;;;;;10.40;1.73;;;14.00;99.90;;;;;;5089837;28;20056;-81
2023/09/19 06:46:01;;;;;;;13.95;2.80;;;14.00;99.90;;;;;;5106424;28;20048;-72
2023/09/19 06:48:29;;;;;;;12.52;2.05;;;14.00;99.90;;;;;;5090943;28;20117;-72
2023/09/19 06:50:58;;;;;;;15.75;2.85;;;14.00;99.90;;;;;;5089595;28;20044;-73
2023/09/19 06:53:24;;;;;;;8.80;2.13;;;14.00;99.90;;;;;;5089373;28;20077;-73
2023/09/19 06:55:54;;;;;;;9.43;1.90;;;14.10;99.90;;;;;;5089426;28;20495;-73
2023/09/19 06:58:20;;;;;;;13.45;1.85;;;14.00;99.90;;;;;;5089234;28;20063;-74
2023/09/19 07:00:46;;;;;;;14.40;2.60;;;14.10;99.90;;;;;;5089120;28;20562;-74
2023/09/19 07:03:13;;;;;;;11.63;3.40;;;14.10;99.90;;;;;;5089154;28;20124;-73
2023/09/19 07:05:40;;;;;;;14.30;2.55;;;14.10;99.90;;;;;;5090364;28;20154;-73
2023/09/19 07:08:08;;;;;;;13.02;2.08;;;14.20;99.90;;;;;;5089276;28;20483;-74
2023/09/19 07:10:33;;;;;;;13.00;2.22;;;14.20;99.90;;;;;;5088718;28;20075;-74
2023/09/19 07:13:00;;;;;;;9.20;2.05;;;14.30;99.90;;;;;;5106006;28;20076;-74
2023/09/19 07:15:27;;;;;;;9.25;2.20;;;14.30;99.90;;;;;;5089148;28;20555;-74
2023/09/19 07:17:54;;;;;;;13.70;1.98;;;14.40;99.90;;;;;;5089177;28;20073;-73
2023/09/19 07:20:20;;;;;;;10.95;1.90;;;14.40;99.90;;;;;;5089998;28;20491;-73
2023/09/19 07:22:47;;;;;;;13.27;2.42;;;14.50;99.90;;;;;;5088845;28;20076;-73
2023/09/19 07:25:14;;;;;;;9.32;2.28;;;14.50;99.90;;;;;;5089809;28;20397;-74
2023/09/19 07:27:43;;;;;;;12.55;1.88;;;14.50;99.90;;;;;;5089886;28;20112;-73
2023/09/19 07:30:11;;;;;;;13.23;2.20;;;14.60;99.90;;;;;;5089000;28;20040;-74
2023/09/19 07:32:38;;;;;;;12.90;1.90;;;14.70;99.90;;;;;;5088487;28;20104;-74
2023/09/19 07:35:05;;;;;;;18.02;2.33;;;14.80;99.90;;;;;;5088595;28;20043;-73
2023/09/19 07:37:33;;;;;;;18.65;2.35;;;14.80;99.90;;;;;;5088541;28;20044;-74
2023/09/19 07:40:09;;;;;;;8.07;2.10;;;14.90;99.90;;;;;;5088271;28;20067;-74
2023/09/19 07:42:36;;;;;;;9.32;1.90;;;14.90;99.90;;;;;;5088435;28;20040;-73
2023/09/19 07:45:03;;;;;;;10.90;1.90;;;15.00;99.90;;;;;;5088436;28;20496;-73
2023/09/19 07:47:30;;;;;;;13.20;2.55;;;15.10;99.90;;;;;;5088521;28;20101;-74
2023/09/19 07:49:56;;;;;;;11.77;1.95;;;15.10;99.90;;;;;;5088356;28;20056;-73
2023/09/19 07:52:22;;;;;;;11.98;2.13;;;15.10;99.90;;;;;;5075444;28;20075;-74
2023/09/19 07:54:49;;;;;;;9.02;2.00;;;15.20;99.90;;;;;;5075752;28;20048;-73
2023/09/19 07:57:15;;;;;;;11.90;2.47;;;15.20;99.90;;;;;;5074837;28;20605;-74
2023/09/19 07:59:41;;;;;;;13.40;2.75;;;15.20;99.90;;;;;;5074557;28;20040;-74
2023/09/19 08:02:09;;;;;;;14.20;2.08;;;15.40;99.90;;;;;;5074568;28;20127;-73
2023/09/19 08:04:35;;;;;;;10.80;2.25;;;15.40;99.90;;;;;;5074462;28;20044;-72
2023/09/19 08:07:04;;;;;;;13.15;2.53;;;15.50;99.90;;;;;;5074386;28;20085;-73
2023/09/19 08:09:33;;;;;;;16.15;2.63;;;15.50;99.90;;;;;;5074514;28;20043;-74
2023/09/19 08:12:03;;;;;;;11.55;2.22;;;15.70;99.90;;;;;;5074710;28;20137;-73
2023/09/19 08:14:29;;;;;;;9.95;1.75;;;15.80;99.90;;;;;;5074391;28;20048;-72
2023/09/19 08:17:05;;;;;;;10.13;2.45;;;15.90;99.90;;;;;;5074662;28;20048;-73
2023/09/19 08:19:31;;;;;;;12.65;2.13;;;16.00;99.90;;;;;;5074317;28;20407;-72
2023/09/19 08:22:01;;;;;;;13.40;2.67;;;16.10;99.90;;;;;;5075634;28;20041;-74
2023/09/19 08:24:28;;;;;;;13.95;2.25;;;16.20;99.90;;;;;;5074424;28;20537;-74
2023/09/19 08:26:55;;;;;;;12.23;1.98;;;16.30;99.90;;;;;;5069462;28;20052;-74
2023/09/19 08:29:21;;;;;;;10.73;1.73;;;16.40;99.90;;;;;;5059283;28;20091;-73
2023/09/19 08:31:50;;;;;;;9.88;1.63;;;16.50;99.90;;;;;;5077003;28;20059;-73
2023/09/19 08:34:16;;;;;;;20.60;2.95;;;16.60;99.90;;;;;;5066763;28;20075;-74
2023/09/19 08:36:44;;;;;;;14.15;2.08;;;16.60;99.90;;;;;;5060425;28;20053;-73
2023/09/19 08:39:11;;;;;;;9.38;2.47;;;16.70;99.90;;;;;;5062461;28;20427;-73
2023/09/19 08:41:36;;;;;;;18.05;2.58;;;16.80;99.90;;;;;;5074445;28;20106;-73
2023/09/19 08:44:03;;;;;;;13.50;2.25;;;16.80;99.90;;;;;;5071214;28;20052;-73
2023/09/19 08:46:31;;;;;;;10.63;1.65;;;16.90;99.90;;;;;;5073701;28;20049;-73
2023/09/19 08:49:20;;;;;;;9.85;2.00;;;16.80;99.90;;;;;;5081367;28;20033;-74
2023/09/19 08:51:48;;;;;;;10.85;1.80;;;16.80;99.90;;;;;;5054352;28;20128;-73
2023/09/19 08:54:26;;;;;;;13.35;2.28;;;16.80;99.90;;;;;;5057898;28;20048;-74
2023/09/19 08:56:54;;;;;;;12.57;1.85;;;16.70;99.90;;;;;;5057071;28;20040;-74
2023/09/19 08:59:24;;;;;;;10.07;2.33;;;16.70;99.90;;;;;;5063521;28;20048;-74
2023/09/19 09:01:53;;;;;;;16.10;4.18;;;16.60;99.90;;;;;;5062016;28;20055;-75
2023/09/19 09:04:20;;;;;;;14.73;2.10;;;16.60;99.90;;;;;;5069454;28;20124;-73
2023/09/19 09:06:50;;;;;;;14.25;2.00;;;16.60;99.90;;;;;;5062172;28;20523;-73
2023/09/19 09:09:17;;;;;;;11.40;2.00;;;16.60;99.90;;;;;;5070129;28;20048;-74
2023/09/19 09:11:42;;;;;;;10.90;2.40;;;16.70;99.90;;;;;;5052884;28;20396;-74
2023/09/19 09:14:08;;;;;;;14.38;2.53;;;16.70;99.90;;;;;;5059693;28;20045;-74
2023/09/19 09:16:34;;;;;;;14.30;2.47;;;16.80;99.90;;;;;;5056859;28;20047;-74
2023/09/19 09:19:01;;;;;;;12.15;2.17;;;16.80;99.90;;;;;;5069809;28;20053;-74
2023/09/19 09:21:28;;;;;;;10.57;2.13;;;16.80;99.90;;;;;;5054636;28;20119;-74
2023/09/19 09:23:54;;;;;;;10.75;2.22;;;16.90;99.90;;;;;;5053122;28;20048;-74
2023/09/19 09:26:39;;;;;;;13.75;2.92;;;17.00;99.90;;;;;;5053299;28;20075;-74
2023/09/19 09:29:07;;;;;;;14.40;2.65;;;17.10;99.90;;;;;;5069945;28;20107;-74
2023/09/19 09:31:33;;;;;;;12.10;2.00;;;17.10;99.90;;;;;;5061238;28;20045;-75
2023/09/19 09:33:58;;;;;;;14.52;2.58;;;17.10;99.90;;;;;;5052233;28;20049;-75
2023/09/19 09:36:38;;;;;;;18.40;2.50;;;17.20;99.90;;;;;;5052925;28;20139;-74
2023/09/19 09:39:24;;;;;;;13.77;2.13;;;17.20;99.90;;;;;;5052079;28;20049;-75
2023/09/19 09:41:50;;;;;;;10.75;2.22;;;17.20;99.90;;;;;;5068926;28;20052;-75
2023/09/19 09:44:18;;;;;;;12.95;2.20;;;17.20;99.90;;;;;;5072523;28;20472;-75
2023/09/19 09:49:34;;;;;;;11.52;2.85;;;17.30;99.90;;;;;;5072391;28;20049;-74
2023/09/19 09:52:09;;;;;;;13.00;2.22;;;17.40;99.90;;;;;;5071879;28;20086;-74
2023/09/19 09:54:41;;;;;;;15.80;2.50;;;17.40;99.90;;;;;;5080647;28;20475;-75
2023/09/19 09:57:20;;;;;;;13.90;3.05;;;17.50;99.90;;;;;;5069593;28;20488;-75
2023/09/19 09:59:53;;;;;;;15.27;2.22;;;17.50;99.90;;;;;;5072491;28;20411;-74
2023/09/19 10:02:36;;;;;;;14.48;2.47;;;17.60;99.90;;;;;;5071814;28;20036;-74
2023/09/19 10:05:22;;;;;;;10.57;2.47;;;17.70;99.90;;;;;;5073862;28;20055;-72
2023/09/19 10:07:53;;;;;;;16.27;3.42;;;17.80;99.90;;;;;;5055648;28;20041;-73
2023/09/19 10:13:13;;;;;;;15.88;2.72;;;17.90;99.90;;;;;;5069229;28;20071;-73
2023/09/19 10:15:46;;;;;;;13.38;2.90;;;17.90;99.90;;;;;;5051869;28;20045;-73
2023/09/19 10:18:18;;;;;;;16.80;2.70;;;18.00;99.90;;;;;;5068736;28;20427;-72
2023/09/19 10:20:45;;;;;;;13.73;2.43;;;18.10;99.90;;;;;;5052041;28;20123;-75
2023/09/19 10:23:20;;;;;;;17.05;2.72;;;18.10;99.90;;;;;;5053271;28;20499;-73
2023/09/19 10:25:47;;;;;;;16.52;3.20;;;18.10;99.90;;;;;;5069683;28;20123;-74
2023/09/19 10:28:15;;;;;;;12.13;2.60;;;18.10;99.90;;;;;;5073285;28;20040;-73
2023/09/19 10:30:47;;;;;;;15.07;2.83;;;18.10;99.90;;;;;;5072096;28;20395;-73
2023/09/19 10:33:15;;;;;;;9.87;2.73;;;18.10;99.90;;;;;;5071966;28;20492;-74
2023/09/19 10:35:45;;;;;;;15.90;3.15;;;18.20;99.90;;;;;;5071857;28;20043;-74
2023/09/19 10:38:13;;;;;;;16.92;3.00;;;18.30;99.90;;;;;;5072143;28;20048;-74
2023/09/19 10:40:43;;;;;;;12.10;3.13;;;18.30;99.90;;;;;;5071597;28;20411;-76
2023/09/19 10:43:20;;;;;;;15.60;3.60;;;18.30;99.90;;;;;;5071766;28;20052;-73
2023/09/19 10:45:53;;;;;;;11.52;2.78;;;18.30;99.90;;;;;;5072088;28;20052;-74
2023/09/19 10:48:19;;;;;;;13.13;3.83;;;18.30;99.90;;;;;;5072115;28;20053;-73
2023/09/19 10:51:09;;;;;;;15.88;3.78;;;18.30;99.90;;;;;;5071719;28;20059;-72
2023/09/19 10:53:59;;;;;;;13.20;3.72;;;18.30;99.90;;;;;;5071626;28;20052;-73
2023/09/19 10:56:42;;;;;;;15.45;3.15;;;18.30;99.90;;;;;;5088876;28;20477;-73
2023/09/19 10:59:10;;;;;;;11.50;2.95;;;18.40;99.90;;;;;;5071685;28;20052;-73
2023/09/19 11:01:53;;;;;;;15.52;3.28;;;18.30;99.90;;;;;;5071685;28;20053;-73
2023/09/19 11:04:35;;;;;;;15.13;3.08;;;18.20;99.90;;;;;;5072924;28;20492;-73
2023/09/19 11:07:12;;;;;;;12.55;3.15;;;18.10;99.90;;;;;;5071661;28;20102;-73
2023/09/19 11:09:54;;;;;;;16.38;3.80;;;17.90;99.90;;;;;;5071672;28;20049;-73
2023/09/19 11:12:30;;;;;;;15.88;3.35;;;17.80;99.90;;;;;;5088638;28;20131;-74
2023/09/19 11:14:56;;;;;;;15.93;3.03;;;17.70;99.90;;;;;;5065826;28;20057;-74
2023/09/19 11:17:34;;;;;;;14.68;3.33;;;17.70;99.90;;;;;;5068479;28;20381;-74
2023/09/19 11:22:50;;;;;;;14.40;3.80;;;17.60;99.90;;;;;;5068219;28;20132;-76
2023/09/19 11:25:31;;;;;;;13.35;4.22;;;17.50;99.90;;;;;;5068455;28;20045;-74
2023/09/19 11:28:05;;;;;;;21.30;3.95;;;17.60;99.90;;;;;;5071726;28;20041;-76
2023/09/19 11:30:55;;;;;;;19.83;3.80;;;17.60;99.90;;;;;;5071824;28;20132;-75
2023/09/19 11:33:28;;;;;;;12.75;3.60;;;17.60;99.90;;;;;;5055093;28;20072;-75
2023/09/19 11:36:24;;;;;;;14.50;4.65;;;17.50;99.90;;;;;;5072003;28;20061;-74
2023/09/19 11:38:53;;;;;;;12.50;4.28;;;17.60;99.90;;;;;;5071440;28;20229;-77
2023/09/19 11:41:29;;;;;;;12.48;3.70;;;17.50;99.90;;;;;;5071730;28;20045;-75
2023/09/19 11:44:04;;;;;;;15.18;3.67;;;17.50;99.90;;;;;;5071608;28;20404;-74
2023/09/19 11:46:51;;;;;;;12.70;3.88;;;17.40;99.90;;;;;;5071821;28;20052;-75
2023/09/19 11:49:23;;;;;;;14.25;3.67;;;17.50;99.90;;;;;;5071794;28;20126;-74
2023/09/19 11:51:53;;;;;;;17.90;4.47;;;17.50;99.90;;;;;;5054958;28;20060;-74
2023/09/19 11:54:21;;;;;;;13.68;3.92;;;17.50;99.90;;;;;;5071390;28;20412;-74
2023/09/19 11:56:50;;;;;;;12.60;4.28;;;17.50;99.90;;;;;;5054922;28;20096;-75
2023/09/19 11:59:32;;;;;;;15.88;4.32;;;17.40;99.90;;;;;;5055879;28;20045;-74
2023/09/19 12:02:02;;;;;;;11.70;3.63;;;17.40;99.90;;;;;;5071496;28;20045;-74
2023/09/19 12:04:38;;;;;;;11.52;4.45;;;17.30;99.90;;;;;;5071686;28;20393;-73
2023/09/19 12:07:15;;;;;;;14.10;4.00;;;17.30;99.90;;;;;;5055807;28;20541;-74
2023/09/19 12:09:50;;;;;;;16.23;5.43;;;17.10;99.90;;;;;;5071431;28;20149;-73
2023/09/19 12:12:35;;;;;;;19.83;4.32;;;17.00;99.90;;;;;;5054645;28;20045;-73
2023/09/19 12:15:03;;;;;;;19.77;4.75;;;16.90;99.90;;;;;;5070335;28;20449;-73
2023/09/19 12:17:42;;;;;;;14.25;4.95;;;16.70;99.90;;;;;;5074588;28;20048;-76
2023/09/19 12:20:15;;;;;;;17.92;5.15;;;16.70;99.90;;;;;;5074111;28;20052;-77
2023/09/19 12:22:44;;;;;;;15.00;4.88;;;16.60;99.90;;;;;;5074476;28;20089;-74
2023/09/19 12:25:11;;;;;;;14.02;5.47;;;16.50;99.90;;;;;;5074116;28;20048;-74
2023/09/19 12:27:48;;;;;;;12.85;4.40;;;16.40;99.90;;;;;;5074150;28;20044;-76
2023/09/19 12:30:14;;;;;;;13.30;4.47;;;16.50;99.90;;;;;;5073919;28;20044;-74
2023/09/19 12:32:41;;;;;;;13.20;4.38;;;16.70;99.90;;;;;;5075255;28;20419;-75
2023/09/19 12:35:10;;;;;;;10.32;3.92;;;16.70;99.90;;;;;;5074143;28;20443;-73
2023/09/19 12:37:37;;;;;;;10.30;3.95;;;16.80;99.90;;;;;;5073913;28;20056;-73
2023/09/19 12:40:28;;;;;;;11.38;3.75;;;16.80;99.90;;;;;;5073429;28;20048;-72
2023/09/19 12:42:56;;;;;;;11.07;3.42;;;17.00;99.90;;;;;;5073486;28;20057;-72
2023/09/19 12:45:22;;;;;;;11.07;3.67;;;17.00;99.90;;;;;;5075086;28;20051;-73
2023/09/19 12:48:32;;;;;;;10.35;4.70;;;17.20;99.90;;;;;;5075116;28;20037;-73
2023/09/19 12:51:12;;;;;;;14.32;3.53;;;17.20;99.90;;;;;;5074931;28;20101;-73
2023/09/19 12:53:46;;;;;;;13.70;3.72;;;17.20;99.90;;;;;;5074348;28;20056;-76
2023/09/19 12:56:16;;;;;;;12.52;3.50;;;17.20;99.90;;;;;;5073891;28;20044;-72
2023/09/19 12:59:13;;;;;;;15.93;4.05;;;17.20;99.90;;;;;;5073602;28;20044;-73
2023/09/19 13:01:50;;;;;;;17.20;4.03;;;17.20;99.90;;;;;;5074259;28;20096;-73
2023/09/19 13:04:30;;;;;;;13.93;3.65;;;17.20;99.90;;;;;;5073470;28;20036;-73